Tennille, Georgia
Current Conditions -  °F | °C
As of 12:15 PM on Friday 24 Oct 2014 (Local Time) from KOKZ Reporting Station
Clear Clear  
Wind Chill: 68°   Ceiling: Unl
Heat Index: 68°   Visibility: 10mi
Dew Point: 48°   Wind: 3mph
Humidity: 48%   Direction: 290°WNW
Pressure: 30.08"   Gusts: NA
Location:  32.94°N, 82.81°W
Report Text: KOKZ 241615Z AUTO 29003KT 10SM CLR 20/09 A3008 RMK AO2 T02000088
Loading
Personal Weather Stations






























Interactive Weather Map
Tropical Storm Tracking
New forecast layout! Learn more

10-Day Weather Forecast

Advertisements
Track Severe Weather on mobile